createdAt,value
2018-08-17T00:00:28.212Z,11.10
2018-08-17T00:01:28.216Z,10.70
2018-08-17T00:02:28.189Z,11.70
2018-08-17T00:03:28.182Z,10.50
2018-08-17T00:04:28.177Z,10.00
2018-08-17T00:05:28.161Z,9.80
2018-08-17T00:06:28.171Z,10.50
2018-08-17T00:07:28.150Z,10.60
2018-08-17T00:08:28.127Z,10.40
2018-08-17T00:09:28.113Z,9.40
2018-08-17T00:10:28.105Z,11.30
2018-08-17T00:11:28.111Z,10.70
2018-08-17T00:12:28.083Z,10.50
2018-08-17T00:13:28.070Z,10.70
2018-08-17T00:14:28.061Z,11.00
2018-08-17T00:15:28.048Z,11.10
2018-08-17T00:16:28.055Z,11.10
2018-08-17T00:17:28.043Z,11.00
2018-08-17T00:18:28.017Z,10.30
2018-08-17T00:19:28.005Z,10.30
2018-08-17T00:20:27.997Z,10.30
2018-08-17T00:21:28.005Z,10.00
2018-08-17T00:22:27.978Z,10.50
2018-08-17T00:23:27.960Z,10.50
2018-08-17T00:24:27.953Z,10.00
2018-08-17T00:25:27.939Z,9.40
2018-08-17T00:26:27.929Z,10.20
2018-08-17T00:27:27.938Z,10.00
2018-08-17T00:28:27.910Z,10.10
2018-08-17T00:29:27.900Z,9.80
2018-08-17T00:30:27.885Z,9.80
2018-08-17T00:31:27.877Z,8.90
2018-08-17T00:32:27.905Z,9.80
2018-08-17T00:33:27.851Z,9.60
2018-08-17T00:34:27.848Z,9.30
2018-08-17T00:35:27.833Z,9.70
2018-08-17T00:36:27.820Z,9.30
2018-08-17T00:37:27.809Z,9.20
2018-08-17T00:38:27.816Z,8.90
2018-08-17T00:39:27.788Z,8.40
2018-08-17T00:40:27.776Z,8.90
2018-08-17T00:41:27.768Z,9.40
2018-08-17T00:42:27.774Z,9.20
2018-08-17T00:43:27.746Z,8.60
2018-08-17T00:44:27.749Z,8.60
2018-08-17T00:45:27.722Z,9.30
2018-08-17T00:46:27.715Z,9.30
2018-08-17T00:47:27.701Z,9.50
2018-08-17T00:48:27.707Z,9.50
2018-08-17T00:49:27.681Z,10.10
2018-08-17T00:50:27.671Z,9.40
2018-08-17T00:51:27.656Z,9.40
2018-08-17T00:52:27.656Z,9.50
2018-08-17T00:53:27.655Z,9.80
2018-08-17T00:54:27.624Z,9.30
2018-08-17T00:55:27.616Z,9.30
2018-08-17T00:56:27.619Z,9.80
2018-08-17T00:57:27.594Z,10.10
2018-08-17T00:58:27.580Z,9.60
2018-08-17T00:59:27.572Z,9.70
2018-08-17T01:00:27.560Z,9.80
2018-08-17T01:01:27.567Z,9.40
2018-08-17T01:02:27.536Z,9.80
2018-08-17T01:03:27.528Z,9.30
2018-08-17T01:04:27.518Z,9.20
2018-08-17T01:05:27.506Z,8.80
2018-08-17T01:06:27.491Z,8.80
2018-08-17T01:07:27.494Z,8.30
2018-08-17T01:08:27.475Z,8.60
2018-08-17T01:09:27.464Z,8.50
2018-08-17T01:10:27.469Z,7.70
2018-08-17T01:11:27.458Z,7.80
2018-08-17T01:12:27.433Z,8.20
2018-08-17T01:13:27.417Z,7.50
2018-08-17T01:14:27.411Z,7.90
2018-08-17T01:15:27.395Z,7.70
2018-08-17T01:16:27.411Z,8.40
2018-08-17T01:17:27.373Z,7.60
2018-08-17T01:18:27.367Z,8.10
2018-08-17T01:19:27.352Z,7.40
2018-08-17T01:20:27.342Z,7.90
2018-08-17T01:21:27.331Z,7.10
2018-08-17T01:22:27.343Z,8.00
2018-08-17T01:23:27.309Z,7.80
2018-08-17T01:24:27.299Z,7.80
2018-08-17T01:25:27.288Z,7.10
2018-08-17T01:26:27.277Z,7.40
2018-08-17T01:27:27.267Z,6.70
2018-08-17T01:28:27.270Z,7.50
2018-08-17T01:29:27.248Z,7.50
2018-08-17T01:30:27.232Z,7.50
2018-08-17T01:31:27.223Z,7.70
2018-08-17T01:32:27.212Z,8.00
2018-08-17T01:33:27.213Z,7.50
2018-08-17T01:34:27.192Z,6.50
2018-08-17T01:35:27.177Z,7.70
2018-08-17T01:36:27.168Z,8.50
2018-08-17T01:37:27.198Z,8.70
2018-08-17T01:38:27.147Z,7.50
2018-08-17T01:39:27.135Z,7.20
2018-08-17T01:40:27.125Z,6.30
2018-08-17T01:41:27.113Z,7.10
2018-08-17T01:42:27.101Z,6.60
2018-08-17T01:43:27.104Z,7.30
2018-08-17T01:44:27.081Z,6.70
2018-08-17T01:45:27.071Z,7.30
2018-08-17T01:46:27.056Z,6.70
2018-08-17T01:47:27.060Z,8.00
2018-08-17T01:48:27.034Z,7.50
2018-08-17T01:49:27.026Z,6.90
2018-08-17T01:50:27.040Z,7.40
2018-08-17T01:51:27.008Z,7.60
2018-08-17T01:52:26.992Z,8.30
2018-08-17T01:53:26.980Z,8.40
2018-08-17T01:54:26.971Z,8.50
2018-08-17T01:55:26.958Z,8.70
2018-08-17T01:56:26.961Z,8.50
2018-08-17T01:57:26.938Z,8.70
2018-08-17T01:58:26.927Z,9.00
2018-08-17T01:59:26.915Z,8.40
2018-08-17T02:00:26.923Z,8.50
2018-08-17T02:01:26.892Z,8.10
2018-08-17T02:02:26.881Z,8.50
2018-08-17T02:03:26.871Z,8.40
2018-08-17T02:04:26.863Z,8.70
2018-08-17T02:05:26.849Z,8.00
2018-08-17T02:06:26.873Z,8.20
2018-08-17T02:07:26.832Z,8.60
2018-08-17T02:08:26.819Z,8.30
2018-08-17T02:09:26.805Z,7.70
2018-08-17T02:10:26.797Z,8.10
2018-08-17T02:11:26.786Z,7.70
2018-08-17T02:12:26.787Z,8.50
2018-08-17T02:13:26.786Z,8.70
2018-08-17T02:14:26.832Z,7.90
2018-08-17T02:15:26.743Z,9.30
2018-08-17T02:16:26.732Z,8.50
2018-08-17T02:17:26.721Z,9.20
2018-08-17T02:18:26.707Z,9.40
2018-08-17T02:19:26.712Z,8.80
2018-08-17T02:20:26.688Z,8.10
2018-08-17T02:21:26.678Z,9.10
2018-08-17T02:22:26.689Z,9.20
2018-08-17T02:23:26.652Z,8.70
2018-08-17T02:24:26.699Z,9.20
2018-08-17T02:25:26.633Z,9.90
2018-08-17T02:26:26.623Z,9.20
2018-08-17T02:27:26.609Z,8.50
2018-08-17T02:28:26.617Z,8.60
2018-08-17T02:29:26.607Z,9.10
2018-08-17T02:30:26.581Z,9.10
2018-08-17T02:31:26.566Z,8.90
2018-08-17T02:32:26.556Z,9.50
2018-08-17T02:33:26.562Z,9.40
2018-08-17T02:34:26.536Z,9.10
2018-08-17T02:35:26.522Z,8.70
2018-08-17T02:36:26.511Z,9.20
2018-08-17T02:37:26.503Z,8.50
2018-08-17T02:38:26.490Z,8.90
2018-08-17T02:39:26.496Z,8.90
2018-08-17T02:40:26.469Z,8.40
2018-08-17T02:41:26.463Z,7.90
2018-08-17T02:42:26.446Z,8.30
2018-08-17T02:43:26.436Z,7.70
2018-08-17T02:44:26.438Z,8.00
2018-08-17T02:45:26.413Z,7.90
2018-08-17T02:46:26.405Z,7.50
2018-08-17T02:47:26.395Z,7.50
2018-08-17T02:48:26.387Z,7.60
2018-08-17T02:49:26.387Z,7.10
2018-08-17T02:50:26.360Z,7.00
2018-08-17T02:51:26.348Z,7.10
2018-08-17T02:52:26.339Z,7.40
2018-08-17T02:53:26.326Z,7.40
2018-08-17T02:54:26.357Z,7.00
2018-08-17T02:55:26.305Z,6.90
2018-08-17T02:56:26.292Z,7.00
2018-08-17T02:57:26.284Z,7.00
2018-08-17T02:58:26.271Z,7.00
2018-08-17T02:59:26.270Z,6.90
2018-08-17T03:00:26.267Z,6.80
2018-08-17T03:01:26.241Z,6.70
2018-08-17T03:02:26.230Z,7.00
2018-08-17T03:03:26.218Z,7.00
2018-08-17T03:04:26.232Z,7.20
2018-08-17T03:05:26.199Z,6.70
2018-08-17T03:06:26.184Z,7.00
2018-08-17T03:07:26.175Z,7.10
2018-08-17T03:08:26.168Z,7.10
2018-08-17T03:09:26.151Z,7.00
2018-08-17T03:10:26.188Z,7.10
2018-08-17T03:11:26.129Z,7.80
2018-08-17T03:12:26.120Z,6.70
2018-08-17T03:13:26.110Z,7.30
2018-08-17T03:14:26.098Z,7.10
2018-08-17T03:15:26.084Z,7.20
2018-08-17T03:16:26.096Z,6.90
2018-08-17T03:17:26.066Z,7.70
2018-08-17T03:18:26.051Z,7.70
2018-08-17T03:19:26.044Z,7.70
2018-08-17T03:20:26.058Z,7.80
2018-08-17T03:21:26.021Z,7.90
2018-08-17T03:22:26.007Z,7.60
2018-08-17T03:23:26.002Z,7.60
2018-08-17T03:24:25.986Z,7.60
2018-08-17T03:25:25.976Z,7.40
2018-08-17T03:26:25.980Z,7.40
2018-08-17T03:27:25.950Z,6.90
2018-08-17T03:28:25.942Z,6.70
2018-08-17T03:29:25.930Z,7.30
2018-08-17T03:30:25.917Z,7.20
2018-08-17T03:31:25.920Z,7.60
2018-08-17T03:32:25.896Z,7.40
2018-08-17T03:33:25.886Z,7.20
2018-08-17T03:34:25.881Z,6.90
2018-08-17T03:35:25.866Z,6.90
2018-08-17T03:36:25.867Z,7.60
2018-08-17T03:37:25.838Z,7.00
2018-08-17T03:38:25.833Z,6.60
2018-08-17T03:39:25.840Z,6.80
2018-08-17T03:40:25.804Z,6.80
2018-08-17T03:41:25.795Z,7.20
2018-08-17T03:42:25.781Z,7.00
2018-08-17T03:43:25.771Z,6.50
2018-08-17T03:44:25.761Z,7.20
2018-08-17T03:45:25.762Z,9.10
2018-08-17T03:46:25.738Z,9.70
2018-08-17T03:47:25.723Z,9.80
2018-08-17T03:48:25.713Z,10.60
2018-08-17T03:49:25.704Z,10.00
2018-08-17T03:50:25.709Z,10.10
2018-08-17T03:51:25.685Z,11.00
2018-08-17T03:52:25.667Z,9.90
2018-08-17T03:53:25.657Z,10.60
2018-08-17T03:54:25.647Z,10.90
2018-08-17T03:55:25.634Z,10.80
2018-08-17T03:56:25.639Z,11.20
2018-08-17T03:57:25.614Z,10.80
2018-08-17T03:58:25.600Z,11.70
2018-08-17T03:59:25.588Z,11.50
2018-08-17T04:00:25.594Z,12.30
2018-08-17T04:01:25.569Z,11.40
2018-08-17T04:02:25.554Z,10.80
2018-08-17T04:03:25.546Z,10.90
2018-08-17T04:04:25.532Z,12.20
2018-08-17T04:05:25.566Z,11.20
2018-08-17T04:06:25.512Z,10.80
2018-08-17T04:07:25.501Z,10.70
2018-08-17T04:08:25.487Z,11.70
2018-08-17T04:09:25.477Z,11.10
2018-08-17T04:10:25.466Z,12.30
2018-08-17T04:11:25.471Z,11.80
2018-08-17T04:12:25.440Z,13.00
2018-08-17T04:13:25.428Z,13.00
2018-08-17T04:14:25.420Z,11.50
2018-08-17T04:15:25.419Z,12.70
2018-08-17T04:16:25.395Z,13.20
2018-08-17T04:17:25.397Z,13.80
2018-08-17T04:18:25.380Z,13.00
2018-08-17T04:19:25.364Z,12.70
2018-08-17T04:20:25.350Z,14.00
2018-08-17T04:21:25.352Z,14.70
2018-08-17T04:22:25.339Z,14.60
2018-08-17T04:23:25.316Z,15.10
2018-08-17T04:24:25.309Z,16.00
2018-08-17T04:25:25.296Z,15.60
2018-08-17T04:26:25.281Z,17.10
2018-08-17T04:27:25.292Z,17.50
2018-08-17T04:28:25.261Z,17.90
2018-08-17T04:29:25.247Z,18.70
2018-08-17T04:30:25.236Z,21.30
2018-08-17T04:31:25.228Z,20.60
2018-08-17T04:32:25.219Z,20.90
2018-08-17T04:33:25.214Z,21.20
2018-08-17T04:34:25.191Z,20.20
2018-08-17T04:35:25.245Z,21.50
2018-08-17T04:36:25.169Z,20.50
2018-08-17T04:37:25.177Z,20.60
2018-08-17T04:38:25.149Z,20.70
2018-08-17T04:39:25.136Z,21.90
2018-08-17T04:40:25.126Z,20.90
2018-08-17T04:41:25.112Z,20.70
2018-08-17T04:42:25.106Z,20.30
2018-08-17T04:43:25.103Z,21.10
2018-08-17T04:44:25.079Z,20.70
2018-08-17T04:45:25.070Z,20.60
2018-08-17T04:46:25.056Z,20.80
2018-08-17T04:47:25.055Z,21.60
2018-08-17T04:48:25.032Z,21.40
2018-08-17T04:49:25.129Z,21.00
2018-08-17T04:50:25.028Z,20.90
2018-08-17T04:51:25.003Z,20.40
2018-08-17T04:52:24.988Z,21.70
2018-08-17T04:53:24.977Z,20.20
2018-08-17T04:54:25.002Z,20.20
2018-08-17T04:55:24.955Z,19.80
2018-08-17T04:56:24.945Z,21.50
2018-08-17T04:57:24.932Z,20.70
2018-08-17T04:58:24.924Z,19.30
2018-08-17T04:59:24.910Z,20.30
2018-08-17T05:00:24.913Z,20.30
2018-08-17T05:01:24.888Z,19.30
2018-08-17T05:02:24.894Z,19.50
2018-08-17T05:03:24.912Z,19.80
2018-08-17T05:04:24.857Z,19.10
2018-08-17T05:05:24.861Z,19.40
2018-08-17T05:06:24.839Z,19.50
2018-08-17T05:07:24.849Z,17.80
2018-08-17T05:08:24.814Z,18.30
2018-08-17T05:09:24.807Z,17.30
2018-08-17T05:10:24.791Z,17.30
2018-08-17T05:11:24.779Z,17.10
2018-08-17T05:12:24.770Z,15.80
2018-08-17T05:13:24.782Z,16.60
2018-08-17T05:14:24.748Z,16.30
2018-08-17T05:15:24.740Z,14.20
2018-08-17T05:16:24.729Z,14.80
2018-08-17T05:17:24.715Z,14.10
2018-08-17T05:18:24.704Z,14.20
2018-08-17T05:19:24.711Z,13.60
2018-08-17T05:20:24.697Z,14.70
2018-08-17T05:21:24.717Z,14.20
2018-08-17T05:22:24.660Z,13.20
2018-08-17T05:23:24.676Z,13.90
2018-08-17T05:24:24.640Z,13.80
2018-08-17T05:25:24.651Z,14.00
2018-08-17T05:26:24.616Z,13.80
2018-08-17T05:27:24.607Z,14.90
2018-08-17T05:28:24.596Z,15.10
2018-08-17T05:29:24.587Z,14.10
2018-08-17T05:30:24.579Z,14.40
2018-08-17T05:31:24.579Z,15.40
2018-08-17T05:32:24.555Z,14.80
2018-08-17T05:33:24.544Z,14.40
2018-08-17T05:34:24.535Z,14.30
2018-08-17T05:35:24.533Z,14.50
2018-08-17T05:36:24.512Z,14.90
2018-08-17T05:37:24.512Z,14.50
2018-08-17T05:38:24.489Z,15.20
2018-08-17T05:39:24.493Z,14.30
2018-08-17T05:40:24.467Z,13.80
2018-08-17T05:41:24.468Z,14.30
2018-08-17T05:42:24.443Z,13.90
2018-08-17T05:43:24.460Z,14.00
2018-08-17T05:44:24.428Z,13.90
2018-08-17T05:45:24.410Z,12.60
2018-08-17T05:46:24.403Z,12.40
2018-08-17T05:47:24.389Z,11.80
2018-08-17T05:48:24.381Z,12.60
2018-08-17T05:49:24.383Z,12.30
2018-08-17T05:50:24.356Z,12.70
2018-08-17T05:51:24.348Z,12.90
2018-08-17T05:52:24.336Z,11.90
2018-08-17T05:53:24.343Z,12.80
2018-08-17T05:54:24.315Z,12.20
2018-08-17T05:55:24.301Z,12.80
2018-08-17T05:56:24.291Z,12.60
2018-08-17T05:57:24.280Z,13.40
2018-08-17T05:58:24.272Z,12.20
2018-08-17T05:59:24.280Z,13.10
2018-08-17T06:00:24.249Z,13.80
2018-08-17T06:01:24.239Z,12.50
2018-08-17T06:02:24.226Z,13.20
2018-08-17T06:03:24.216Z,13.00
2018-08-17T06:04:24.206Z,12.60
2018-08-17T06:05:24.213Z,13.30
2018-08-17T06:06:24.182Z,12.90
2018-08-17T06:07:24.173Z,12.80
2018-08-17T06:08:24.159Z,12.20
2018-08-17T06:09:24.151Z,12.50
2018-08-17T06:10:24.138Z,12.30
2018-08-17T06:11:24.229Z,12.80
2018-08-17T06:12:24.115Z,12.70
2018-08-17T06:13:24.107Z,13.20
2018-08-17T06:14:24.093Z,12.10
2018-08-17T06:15:24.086Z,12.50
2018-08-17T06:16:24.085Z,12.60
2018-08-17T06:17:24.063Z,12.10
2018-08-17T06:18:24.049Z,12.20
2018-08-17T06:19:24.098Z,12.40
2018-08-17T06:20:24.035Z,12.10
2018-08-17T06:21:24.057Z,12.50
2018-08-17T06:22:24.005Z,13.40
2018-08-17T06:23:24.001Z,12.40
2018-08-17T06:24:23.985Z,11.70
2018-08-17T06:25:23.976Z,12.50
2018-08-17T06:26:23.963Z,12.40
2018-08-17T06:27:23.978Z,12.80
2018-08-17T06:28:23.941Z,13.00
2018-08-17T06:29:23.930Z,12.30
2018-08-17T06:30:23.919Z,12.40
2018-08-17T06:31:23.907Z,12.30
2018-08-17T06:32:23.899Z,12.20
2018-08-17T06:33:23.902Z,11.60
2018-08-17T06:34:23.876Z,11.50
2018-08-17T06:35:23.865Z,11.60
2018-08-17T06:36:23.852Z,12.00
2018-08-17T06:37:23.952Z,12.60
2018-08-17T06:38:23.833Z,12.60
2018-08-17T06:39:23.821Z,12.90
2018-08-17T06:40:23.809Z,13.50
2018-08-17T06:41:23.797Z,12.90
2018-08-17T06:42:23.788Z,13.40
2018-08-17T06:43:23.790Z,12.90
2018-08-17T06:44:23.765Z,12.10
2018-08-17T06:45:23.756Z,12.30
2018-08-17T06:46:23.742Z,11.90
2018-08-17T06:47:23.764Z,11.90
2018-08-17T06:48:23.723Z,11.90
2018-08-17T06:49:23.709Z,12.30
2018-08-17T06:50:23.702Z,11.90
2018-08-17T06:51:23.690Z,11.50
2018-08-17T06:52:23.679Z,10.70
2018-08-17T06:53:23.685Z,11.00
2018-08-17T06:54:23.671Z,11.40
2018-08-17T06:55:23.647Z,10.80
2018-08-17T06:56:23.635Z,10.50
2018-08-17T06:57:23.622Z,10.10
2018-08-17T06:58:23.618Z,10.60
2018-08-17T06:59:23.621Z,10.00
2018-08-17T07:00:23.591Z,9.90
2018-08-17T07:01:23.580Z,9.90
2018-08-17T07:02:23.568Z,9.70
2018-08-17T07:03:23.558Z,9.90
2018-08-17T07:04:23.547Z,10.40
2018-08-17T07:05:23.558Z,10.20
2018-08-17T07:06:23.525Z,10.10
2018-08-17T07:07:23.515Z,10.40
2018-08-17T07:08:23.503Z,9.60
2018-08-17T07:09:23.617Z,10.00
2018-08-17T07:10:23.482Z,9.60
2018-08-17T07:11:23.485Z,9.40
2018-08-17T07:12:23.458Z,9.90
2018-08-17T07:13:23.447Z,9.20
2018-08-17T07:14:23.439Z,8.80
2018-08-17T07:15:23.444Z,8.80
2018-08-17T07:16:23.413Z,8.10
2018-08-17T07:17:23.403Z,8.00
2018-08-17T07:18:23.394Z,8.90
2018-08-17T07:19:23.384Z,7.40
2018-08-17T07:20:23.372Z,7.80
2018-08-17T07:21:23.379Z,8.30
2018-08-17T07:22:23.350Z,8.10
2018-08-17T07:23:23.340Z,7.30
2018-08-17T07:24:23.325Z,8.30
2018-08-17T07:25:23.329Z,7.80
2018-08-17T07:26:23.306Z,7.40
2018-08-17T07:27:23.293Z,7.10
2018-08-17T07:28:23.284Z,7.30
2018-08-17T07:29:23.271Z,7.70
2018-08-17T07:30:23.276Z,7.60
2018-08-17T07:31:23.279Z,7.30
2018-08-17T07:32:23.238Z,7.50
2018-08-17T07:33:23.226Z,6.90
2018-08-17T07:34:23.220Z,6.80
2018-08-17T07:35:23.206Z,6.50
2018-08-17T07:36:23.197Z,6.80
2018-08-17T07:37:23.196Z,6.80
2018-08-17T07:38:23.196Z,7.00
2018-08-17T07:39:23.164Z,7.00
2018-08-17T07:40:23.153Z,6.90
2018-08-17T07:41:23.139Z,6.60
2018-08-17T07:42:23.130Z,6.20
2018-08-17T07:43:23.117Z,6.80
2018-08-17T07:44:23.151Z,6.00
2018-08-17T07:45:23.095Z,5.80
2018-08-17T07:46:23.087Z,5.50
2018-08-17T07:47:23.074Z,6.00
2018-08-17T07:48:23.174Z,5.90
2018-08-17T07:49:23.052Z,6.00
2018-08-17T07:50:23.055Z,5.60
2018-08-17T07:51:23.033Z,5.70
2018-08-17T07:52:23.020Z,6.00
2018-08-17T07:53:23.011Z,5.80
2018-08-17T07:54:23.041Z,5.60
2018-08-17T07:55:22.986Z,5.50
2018-08-17T07:56:22.977Z,5.50
2018-08-17T07:57:22.966Z,5.70
2018-08-17T07:58:22.953Z,5.70
2018-08-17T07:59:22.941Z,5.20
2018-08-17T08:00:22.944Z,5.00
2018-08-17T08:01:22.921Z,4.80
2018-08-17T08:02:22.914Z,4.40
2018-08-17T08:03:22.913Z,4.40
2018-08-17T08:04:22.890Z,4.60
2018-08-17T08:05:22.878Z,4.20
2018-08-17T08:06:22.866Z,3.90
2018-08-17T08:07:22.857Z,4.40
2018-08-17T08:08:22.861Z,4.60
2018-08-17T08:09:22.836Z,4.40
2018-08-17T08:10:22.821Z,4.10
2018-08-17T08:11:22.814Z,4.40
2018-08-17T08:12:22.802Z,4.70
2018-08-17T08:13:22.805Z,4.50
2018-08-17T08:14:22.779Z,4.90
2018-08-17T08:15:22.770Z,4.60
2018-08-17T08:16:22.759Z,4.40
2018-08-17T08:17:22.748Z,4.80
2018-08-17T08:18:22.753Z,4.50
2018-08-17T08:19:22.742Z,4.20
2018-08-17T08:20:22.737Z,5.20
2018-08-17T08:21:22.704Z,4.90
2018-08-17T08:22:22.692Z,4.60
2018-08-17T08:23:22.680Z,5.00
2018-08-17T08:24:22.709Z,4.80
2018-08-17T08:25:22.660Z,4.70
2018-08-17T08:26:22.649Z,4.50
2018-08-17T08:27:22.635Z,4.70
2018-08-17T08:28:22.625Z,4.30
2018-08-17T08:29:22.617Z,4.90
2018-08-17T08:30:22.617Z,4.80
2018-08-17T08:31:22.594Z,4.40
2018-08-17T08:32:22.593Z,4.30
2018-08-17T08:33:22.572Z,4.50
2018-08-17T08:34:22.587Z,4.80
2018-08-17T08:35:22.547Z,4.50
2018-08-17T08:36:22.537Z,4.90
2018-08-17T08:37:22.526Z,5.20
2018-08-17T08:38:22.518Z,4.60
2018-08-17T08:39:22.504Z,5.00
2018-08-17T08:40:22.535Z,4.80
2018-08-17T08:41:22.485Z,4.90
2018-08-17T08:42:22.472Z,4.60
2018-08-17T08:43:22.464Z,4.90
2018-08-17T08:44:22.452Z,4.30
2018-08-17T08:45:22.448Z,4.60
2018-08-17T08:46:22.443Z,5.10
2018-08-17T08:47:22.426Z,4.80
2018-08-17T08:48:22.409Z,5.40
2018-08-17T08:49:22.399Z,5.80
2018-08-17T08:50:22.410Z,5.20
2018-08-17T08:51:22.372Z,5.30
2018-08-17T08:52:22.361Z,5.40
2018-08-17T08:53:22.351Z,6.30
2018-08-17T08:54:22.343Z,6.50
2018-08-17T08:55:22.328Z,6.30
2018-08-17T08:56:22.342Z,6.90
2018-08-17T08:57:22.308Z,7.00
2018-08-17T08:58:22.299Z,6.90
2018-08-17T08:59:22.288Z,7.70
2018-08-17T09:00:22.277Z,7.30
2018-08-17T09:01:22.266Z,7.50
2018-08-17T09:02:22.269Z,7.80
2018-08-17T09:03:22.244Z,7.80
2018-08-17T09:04:22.233Z,8.40
2018-08-17T09:05:22.223Z,8.30
2018-08-17T09:06:22.226Z,8.10
2018-08-17T09:07:22.201Z,8.50
2018-08-17T09:08:22.286Z,8.80
2018-08-17T09:09:22.176Z,8.60
2018-08-17T09:10:22.166Z,8.60
2018-08-17T09:11:22.172Z,8.50
2018-08-17T09:12:22.146Z,9.70
2018-08-17T09:13:22.150Z,9.20
2018-08-17T09:14:22.125Z,9.10
2018-08-17T09:15:22.114Z,8.90
2018-08-17T09:16:22.105Z,9.40
2018-08-17T09:17:22.090Z,9.90
2018-08-17T09:18:22.095Z,9.70
2018-08-17T09:19:22.085Z,9.40
2018-08-17T09:20:22.224Z,10.00
2018-08-17T09:21:22.056Z,8.90
2018-08-17T09:22:22.036Z,10.20
2018-08-17T09:23:22.043Z,10.60
2018-08-17T09:24:22.060Z,10.20
2018-08-17T09:25:22.005Z,11.30
2018-08-17T09:26:21.991Z,10.10
2018-08-17T09:27:21.984Z,9.40
2018-08-17T09:28:21.996Z,9.40
2018-08-17T09:29:21.959Z,10.10
2018-08-17T09:30:21.951Z,9.30
2018-08-17T09:31:21.940Z,9.20
2018-08-17T09:32:21.926Z,9.40
2018-08-17T09:33:21.915Z,9.20
2018-08-17T09:34:21.920Z,9.90
2018-08-17T09:35:21.913Z,9.40
2018-08-17T09:36:21.883Z,9.20
2018-08-17T09:37:21.875Z,9.70
2018-08-17T09:38:21.862Z,9.70
2018-08-17T09:39:21.852Z,8.80
2018-08-17T09:40:21.839Z,9.50
2018-08-17T09:41:21.842Z,9.20
2018-08-17T09:42:21.818Z,8.20
2018-08-17T09:43:21.808Z,7.80
2018-08-17T09:44:21.797Z,8.30
2018-08-17T09:45:21.786Z,8.80
2018-08-17T09:46:21.797Z,8.70
2018-08-17T09:47:21.765Z,8.30
2018-08-17T09:48:21.753Z,8.60
2018-08-17T09:49:21.746Z,8.70
2018-08-17T09:50:21.734Z,7.40
2018-08-17T09:51:21.800Z,7.10
2018-08-17T09:52:21.739Z,8.60
2018-08-17T09:53:21.718Z,7.50
2018-08-17T09:54:21.689Z,8.30
2018-08-17T09:55:21.681Z,7.20
2018-08-17T09:56:21.670Z,6.50
2018-08-17T09:57:21.677Z,6.30
2018-08-17T09:58:21.651Z,6.10
2018-08-17T09:59:21.638Z,6.00
2018-08-17T10:00:21.625Z,6.20
2018-08-17T10:01:21.615Z,5.70
2018-08-17T10:02:21.607Z,5.10
2018-08-17T10:03:21.606Z,4.70
2018-08-17T10:04:21.587Z,5.30
2018-08-17T10:05:21.570Z,6.00
2018-08-17T10:06:21.564Z,5.30
2018-08-17T10:07:21.564Z,5.40
2018-08-17T10:08:21.547Z,6.10
2018-08-17T10:09:21.532Z,5.50
2018-08-17T10:10:21.521Z,5.20
2018-08-17T10:11:21.508Z,5.30
2018-08-17T10:12:21.522Z,4.40
2018-08-17T10:13:21.487Z,4.50
2018-08-17T10:14:21.480Z,4.70
2018-08-17T10:15:21.470Z,4.50
2018-08-17T10:16:21.459Z,4.10
2018-08-17T10:17:21.445Z,4.20
2018-08-17T10:18:21.450Z,4.40
2018-08-17T10:19:21.425Z,4.70
2018-08-17T10:20:21.417Z,4.70
2018-08-17T10:21:21.666Z,4.00
2018-08-17T10:22:21.398Z,3.30
2018-08-17T10:23:21.401Z,3.90
2018-08-17T10:24:21.373Z,3.70
2018-08-17T10:25:21.361Z,4.00
2018-08-17T10:26:21.351Z,3.80
2018-08-17T10:27:21.344Z,3.40
2018-08-17T10:28:21.345Z,3.00
2018-08-17T10:29:21.337Z,2.50
2018-08-17T10:30:21.313Z,1.70
2018-08-17T10:31:21.299Z,1.90
2018-08-17T10:32:21.291Z,2.20
2018-08-17T10:33:21.296Z,2.00
2018-08-17T10:34:21.268Z,2.30
2018-08-17T10:35:21.260Z,2.50
2018-08-17T10:36:21.249Z,3.80
2018-08-17T10:37:21.240Z,4.30
2018-08-17T10:38:21.228Z,4.50
2018-08-17T10:39:21.232Z,3.90
2018-08-17T10:40:21.221Z,4.30
2018-08-17T10:41:21.193Z,4.00
2018-08-17T10:42:21.187Z,3.90
2018-08-17T10:43:21.175Z,3.10
2018-08-17T10:44:21.184Z,3.00
2018-08-17T10:45:21.156Z,2.30
2018-08-17T10:46:21.144Z,2.50
2018-08-17T10:47:21.132Z,3.00
2018-08-17T10:48:21.126Z,2.90
2018-08-17T10:49:21.111Z,2.90
2018-08-17T10:50:21.114Z,2.70
2018-08-17T10:51:21.092Z,2.40
2018-08-17T10:52:21.083Z,2.40
2018-08-17T10:53:21.072Z,2.00
2018-08-17T10:54:21.065Z,1.40
2018-08-17T10:55:21.107Z,1.40
2018-08-17T10:56:21.039Z,1.30
2018-08-17T10:57:21.081Z,1.50
2018-08-17T10:58:21.036Z,1.70
2018-08-17T10:59:21.009Z,3.60
2018-08-17T11:00:20.999Z,2.90
2018-08-17T11:01:20.986Z,3.10
2018-08-17T11:02:20.980Z,3.30
2018-08-17T11:03:20.965Z,3.80
2018-08-17T11:04:20.968Z,3.90
2018-08-17T11:05:20.946Z,4.50
2018-08-17T11:06:20.953Z,4.90
2018-08-17T11:07:20.924Z,4.40
2018-08-17T11:08:20.914Z,4.50
2018-08-17T11:09:20.903Z,3.40
2018-08-17T11:10:20.893Z,3.90
2018-08-17T11:11:20.885Z,3.80
2018-08-17T11:12:20.886Z,4.70
2018-08-17T11:13:20.972Z,5.40
2018-08-17T11:14:20.854Z,5.50
2018-08-17T11:15:20.845Z,5.60
2018-08-17T11:16:20.833Z,6.00
2018-08-17T11:17:20.821Z,7.00
2018-08-17T11:18:20.812Z,6.20
2018-08-17T11:19:20.819Z,5.80
2018-08-17T11:20:20.790Z,5.80
2018-08-17T11:21:20.778Z,5.80
2018-08-17T11:22:20.771Z,5.90
2018-08-17T11:23:20.758Z,5.50
2018-08-17T11:24:20.750Z,5.10
2018-08-17T11:25:20.751Z,5.20
2018-08-17T11:26:20.728Z,4.90
2018-08-17T11:27:20.718Z,4.20
2018-08-17T11:28:20.711Z,4.40
2018-08-17T11:29:20.697Z,4.30
2018-08-17T11:30:20.706Z,4.20
2018-08-17T11:31:20.673Z,3.50
2018-08-17T11:32:20.666Z,3.80
2018-08-17T11:33:20.656Z,3.10
2018-08-17T11:34:20.690Z,3.80
2018-08-17T11:35:20.648Z,3.40
2018-08-17T11:36:20.638Z,3.20
2018-08-17T11:37:20.612Z,3.00
2018-08-17T11:38:20.607Z,2.90
2018-08-17T11:39:20.591Z,2.90
2018-08-17T11:40:20.605Z,2.10
2018-08-17T11:41:20.581Z,2.60
2018-08-17T11:42:20.563Z,2.60
2018-08-17T11:43:20.550Z,2.50
2018-08-17T11:44:20.541Z,2.20
2018-08-17T11:45:20.532Z,2.00
2018-08-17T11:46:20.540Z,1.60
2018-08-17T11:47:20.510Z,1.70
2018-08-17T11:48:20.500Z,1.80
2018-08-17T11:49:20.488Z,1.80
2018-08-17T11:50:20.477Z,1.80
2018-08-17T11:51:20.469Z,1.40
2018-08-17T11:52:20.471Z,1.40
2018-08-17T11:53:20.446Z,1.30
2018-08-17T11:54:20.436Z,1.20
2018-08-17T11:55:20.433Z,1.10
2018-08-17T11:56:20.415Z,1.40
2018-08-17T11:57:20.420Z,1.70
2018-08-17T11:58:20.398Z,1.70
2018-08-17T11:59:20.386Z,1.50
2018-08-17T12:00:20.373Z,1.60
2018-08-17T12:01:20.364Z,1.50
2018-08-17T12:02:20.373Z,1.40
2018-08-17T12:03:20.347Z,1.30
2018-08-17T12:04:20.333Z,1.30
2018-08-17T12:05:20.322Z,1.30
2018-08-17T12:06:20.313Z,1.00
2018-08-17T12:07:20.302Z,1.00
2018-08-17T12:08:20.499Z,0.80
2018-08-17T12:09:20.281Z,0.80
2018-08-17T12:10:20.271Z,0.60
2018-08-17T12:11:20.264Z,0.60
2018-08-17T12:12:20.249Z,0.70
2018-08-17T12:13:20.256Z,0.90
2018-08-17T12:14:20.228Z,0.90
2018-08-17T12:15:20.233Z,0.60
2018-08-17T12:16:20.211Z,0.80
2018-08-17T12:17:20.201Z,0.80
2018-08-17T12:18:20.201Z,0.80
2018-08-17T12:19:20.177Z,0.80
2018-08-17T12:20:20.166Z,1.20
2018-08-17T12:21:20.159Z,1.20
2018-08-17T12:22:20.145Z,1.10
2018-08-17T12:23:20.155Z,1.40
2018-08-17T12:24:20.153Z,1.30
2018-08-17T12:25:20.117Z,1.10
2018-08-17T12:26:20.107Z,1.40
2018-08-17T12:27:20.094Z,1.90
2018-08-17T12:28:20.082Z,1.70
2018-08-17T12:29:20.093Z,1.50
2018-08-17T12:30:20.064Z,1.70
2018-08-17T12:31:20.053Z,1.50
2018-08-17T12:32:20.040Z,1.40
2018-08-17T12:33:20.030Z,1.20
2018-08-17T12:34:20.021Z,1.40
2018-08-17T12:35:20.023Z,1.10
2018-08-17T12:36:19.997Z,1.60
2018-08-17T12:37:19.986Z,1.00
2018-08-17T12:38:19.976Z,1.10
2018-08-17T12:39:19.968Z,1.10
2018-08-17T12:40:19.976Z,1.10
2018-08-17T12:41:19.945Z,0.90
2018-08-17T12:42:19.948Z,1.00
2018-08-17T12:43:19.926Z,0.80
2018-08-17T12:44:19.915Z,1.00
2018-08-17T12:45:19.916Z,1.10
2018-08-17T12:46:19.907Z,0.90
2018-08-17T12:47:19.880Z,1.10
2018-08-17T12:48:19.871Z,1.00
2018-08-17T12:49:19.858Z,1.10
2018-08-17T12:50:19.861Z,1.00
2018-08-17T12:51:19.840Z,1.00
2018-08-17T12:52:19.938Z,1.10
2018-08-17T12:53:19.817Z,1.00
2018-08-17T12:54:19.804Z,1.00
2018-08-17T12:55:19.798Z,1.30
2018-08-17T12:56:19.785Z,1.10
2018-08-17T12:57:19.775Z,1.10
2018-08-17T12:58:19.776Z,1.40
2018-08-17T12:59:19.754Z,0.90
2018-08-17T13:00:19.743Z,1.10
2018-08-17T13:01:19.748Z,0.90
2018-08-17T13:02:19.721Z,0.90
2018-08-17T13:03:19.720Z,0.80
2018-08-17T13:04:19.698Z,0.90
2018-08-17T13:05:19.691Z,1.20
2018-08-17T13:06:19.680Z,1.20
2018-08-17T13:07:19.667Z,1.30
2018-08-17T13:08:19.675Z,1.40
2018-08-17T13:09:19.646Z,1.60
2018-08-17T13:10:19.637Z,1.20